KGRI

Central Nebraska Regional Airport

Grand Island, Nebraska, USA
METAR KGRI 161353Z 20004KT 10SM OVC048 20/17 A3003 RMK AO2 SLP162 T02000172
Observed Flight Rules
Aug-16 @ 13:53 UTC (23 minutes ago) Visual Flight Rules
Wind Visibility Clouds
200° at 4 knots 10 miles
  • Overcast at 4,800' AGL
Temperatures Readings
Current 20°C / 68°F
Dewpoint 17°C / 63°F
Humidity 83%
Altimeter 30.03" Hg
Pressure 1016.2 hPa
Elevation 561
METAR KGRI 161353Z 20004KT 10SM OVC048 20/17 A3003 RMK AO2 SLP162 T02000172
Observed Flight Rules
Aug-16 @ 13:53 UTC
(23 minutes ago)
VFR
Wind Visibility
200° at 4 knots 10 miles
Clouds
  • Overcast at 4,800' AGL
Temperature Dewpoint
20°C / 68°F 17°C / 63°F
Humidity Altimeter Pressure
83% 30.03" Hg 1016.2 hPa